Etusivu
METAR-TAF:

METAR-TAF

Lentoasemat :

Notodden, Norja

Leveyspiiri: 59-34N, Pituuspiiri: 009-13E, korkeus merenpinnasta: 19 m

Tämänhetkinen sää

Tämä raportti tehtiin 1 tunti ja 8 minuuttia sitten, kello 07.50 UTC
Tuuli 2 kn eri suunnista
Lämpötila -4°C
Kosteus 93%
Ilmanpaine 1041 hPa
Näkyvyys 10 km tai enemmän
Muutamia pilviä 600 ft:n korkeudessa
Hajanaisia pilviä 1700 ft:n korkeudessa

METAR: ENNO 190750Z VRB02KT 9999 FEW006 SCT017 M04/M05 Q1041

Aika: 09:58 (08:58 UTC)

Sääennuste

Tämä raportti tehtiin 58 minuuttia sitten, kello 08.00 UTC
Ennuste voimassa 19. päivästä klo 09 UTC - 19. päivään klo 18 UTC
Tuuli 5 kn eri suunnista
Näkyvyys 10 km tai enemmän
Muutamia pilviä 500 ft:n korkeudessa
Hajonneita pilviä 1700 ft:n korkeudessa

TAF: ENNO 190800Z 1909/1918 VRB05KT 9999 FEW005 BKN017

Säähavainnot ja -ennusteet yli 4000 lentoasemalta (METAR- ja TAF-raportit).

Käytössä olevat sääasemat on merkitty karttaan keltaisilla ja punaisilla pisteillä.

Aseta hiiri pisteen päälle nähdäksesi sääaseman nimen.

Klikkaa sitten nähdäksesi säähavainnot ja -ennusteet.

Kartan vaihtaminen: klikkaa mustalla rastilla varustettuja vihreitä pisteitä, niin voit zoomata sisään; viivalla varustettua vihreää pistettä, niin voit zoomata ulos tai vihreitä nuolia, niin pääset viereisille kartoille.


METAR-TAF: